• Join FlightAware (Why Join?)
  • Login
  • US Flag 
09:24PM EDT


 

Airport Tracker/Info


-or-


 

Live Flight TrackerFlight Track Log ✈ AAY891 ✈ 02-Jun-2014 ✈ KFWA - KPIE

Flight Track Log - Related Links

Times and Time Zones

All times are in EDT time to prevent confusion due to time zone crossing. See the AAY891 flight status page for this flight to view local times or setup timezone preferences in your user account.

Time Position Orientation Groundspeed Altitude Reporting Facility
EDT Latitude Longitude Course Direction KTS MPH feet Rate Location/Type
07:18PM 40.9025 -85.2211 149° Southeast 206 237 3,700  Level Chicago Center
07:19PM 40.8228 -85.2603 200° South 251 289 6,800 2,820 Climbing Chicago Center
07:20PM 40.7533 -85.2936 200° South 262 302 9,600 2,220 Climbing Chicago Center
07:21PM 40.6761 -85.3278 199° South 285 328 11,400 1,920 Climbing Chicago Center
07:22PM 40.5931 -85.3575 195° South 329 379 13,600 2,460 Climbing Chicago Center
07:23PM 39.9656 -84.9687 149° Southeast  Level Estimated
07:23PM 40.4794 -85.3194 166° South 355 409 16,500  Level Chicago Center
07:24PM 40.3853 -85.2686 158° South 360 414 18,700 1,740 Climbing Chicago Center
07:25PM 40.2894 -85.2078 154° Southeast 376 433 20,200 1,260 Climbing Chicago Center
07:26PM 40.1892 -85.1492 156° South 390 449 21,400 1,260 Climbing Chicago Center
07:28PM 40.0636 -85.0808 157° South 402 463 23,000 1,260 Climbing Indianapolis Center
07:29PM 39.9644 -84.9922 146° Southeast 425 489 24,200 1,200 Climbing Indianapolis Center
07:30PM 39.8639 -84.9042 146° Southeast 429 494 25,500 900 Climbing Indianapolis Center
07:31PM 39.7503 -84.8072 147° Southeast 437 503 26,100 660 Climbing Indianapolis Center
07:32PM 39.6408 -84.7158 147° Southeast 457 526 26,900 900 Climbing Indianapolis Center
07:33PM 39.5228 -84.6450 155° Southeast 466 536 28,000 1,020 Climbing Indianapolis Center
07:34PM 39.3972 -84.6136 169° South 464 534 29,100 960 Climbing Indianapolis Center
07:35PM 39.2703 -84.5919 172° South 464 534 30,000 780 Climbing Indianapolis Center
07:36PM 39.1442 -84.5664 171° South 464 534 30,800 900 Climbing Indianapolis Center
07:37PM 38.9917 -84.5322 170° South 464 534 31,900 960 Climbing Indianapolis Center
07:38PM 38.8642 -84.5019 170° South 464 534 32,900 480 Climbing Indianapolis Center
07:39PM 38.7381 -84.4711 169° South 464 534 33,000  Climbing Indianapolis Center
07:40PM 38.6061 -84.4450 171° South 464 534 33,000  Level Indianapolis Center
07:41PM 38.4769 -84.4197 171° South 464 534 33,000  Level Indianapolis Center
07:42PM 38.3475 -84.3939 171° South 467 537 33,000  Level Indianapolis Center
07:43PM 38.2200 -84.3639 170° South 467 537 33,000  Level Indianapolis Center
07:44PM 38.0906 -84.3353 170° South 467 537 33,000  Level Indianapolis Center
07:45PM 37.9389 -84.3050 171° South 469 540 33,000  Level Indianapolis Center
07:46PM 37.8097 -84.2800 171° South 469 540 33,000  Level Indianapolis Center
07:47PM 37.6792 -84.2533 171° South 470 541 33,000  Level Indianapolis Center
07:48PM 37.5503 -84.2256 170° South 470 541 33,000  Level Indianapolis Center
07:49PM 37.4178 -84.1972 170° South 475 547 33,000  Level Indianapolis Center
07:50PM 37.2869 -84.1714 171° South 476 548 33,000  Level Indianapolis Center
07:51PM 37.1561 -84.1456 171° South 477 549 33,000  Level Indianapolis Center
07:52PM 37.0047 -84.1150 171° South 476 548 33,000  Level Indianapolis Center
07:53PM 36.8739 -84.0886 171° South 476 548 33,000  Level Indianapolis Center
07:54PM 36.7447 -84.0617 171° South 476 548 33,000  Level Indianapolis Center
07:55PM 36.6139 -84.0353 171° South 476 548 33,000  Level Indianapolis Center
07:56PM 36.4742 -84.0067 171° South 475 547 33,000  Level Indianapolis Center
07:57PM 36.3422 -83.9811 171° South 476 548 33,000  Level Indianapolis Center
07:58PM 36.2100 -83.9533 170° South 476 548 33,000  Level Indianapolis Center
07:59PM 36.0833 -83.9283 171° South 483 556 33,000  Level Atlanta Center
08:00PM 35.9769 -83.9078 171° South 483 556 33,000  Level Atlanta Center
08:01PM 35.8350 -83.9056 179° South 483 556 33,000  Level Atlanta Center
08:02PM 35.7036 -83.9364 191° South 478 550 33,000  Level Atlanta Center
08:03PM 35.5786 -83.9775 195° South 478 550 33,000  Level Atlanta Center
08:04PM 35.4492 -84.0108 192° South 478 550 33,000  Level Atlanta Center
08:05PM 35.3239 -84.0389 190° South 472 543 33,000  Level Atlanta Center
08:06PM 35.1947 -84.0642 189° South 467 537 33,000  Level Atlanta Center
08:07PM 35.0672 -84.0972 192° South 467 537 33,000  Level Atlanta Center
08:08PM 34.9400 -84.1275 191° South 467 537 33,000  Level Atlanta Center
08:09PM 34.8169 -84.1603 192° South 467 537 33,000  Level Atlanta Center
08:10PM 34.6894 -84.1878 190° South 467 537 33,000  Level Atlanta Center
08:11PM 34.5706 -84.2153 191° South 455 524 33,000  Level Atlanta Center
08:12PM 34.4453 -84.2428 190° South 455 524 33,000  Level Atlanta Center
08:13PM 34.3242 -84.2753 192° South 455 524 33,000  Level Atlanta Center
08:14PM 34.2008 -84.3025 190° South 449 517 33,000  Level Atlanta Center
08:15PM 34.0631 -84.3322 190° South 456 525 33,000  Level Atlanta Center
08:16PM 33.9461 -84.3794 199° South 450 518 33,000  Level Atlanta Center
08:17PM 33.8311 -84.4314 201° Southwest 444 511 33,000  Level Atlanta Center
08:18PM 33.7081 -84.4633 192° South 444 511 33,000  Level Atlanta Center
08:19PM 33.5847 -84.4628 180° South 439 505 33,000  Level Atlanta Center
08:20PM 33.4617 -84.4522 176° South 444 511 33,000  Level Atlanta Center
08:21PM 33.3386 -84.4417 176° South 444 511 33,000  Level Atlanta Center
08:22PM 33.2153 -84.4436 181° South 439 505 33,000  Level Atlanta Center
08:23PM 33.0903 -84.4456 181° South 439 505 33,000  Level Atlanta Center
08:24PM 32.9669 -84.4400 178° South 439 505 33,000  Level Atlanta Center
08:25PM 32.8439 -84.4319 177° South 439 505 33,000  Level Atlanta Center
08:26PM 32.7333 -84.4314 180° South 439 505 33,000  Level Atlanta Center
08:27PM 32.6100 -84.4283 179° South 439 505 33,000  Level Atlanta Center
08:28PM 32.4869 -84.4278 180° South 439 505 33,000  Level Atlanta Center
08:29PM 32.3597 -84.4225 178° South 444 511 33,000  Level Atlanta Center
08:31PM 32.1447 -84.4164 179° South 447 514 33,000  Level Jacksonville Center
08:32PM 32.0197 -84.4142 179° South 452 520 33,000  Level Jacksonville Center
08:33PM 31.8944 -84.4122 179° South 452 520 33,000  Level Jacksonville Center
08:34PM 31.7669 -84.4075 178° South 457 526 33,000  Level Jacksonville Center
08:35PM 31.6419 -84.4008 177° South 457 526 33,000  Level Jacksonville Center
08:36PM 31.5144 -84.3961 178° South 457 526 33,000 -60 Level Jacksonville Center
08:37PM 31.3872 -84.3989 181° South 457 526 32,900 -540 Descending Jacksonville Center
08:38PM 31.2619 -84.3947 178° South 457 526 32,000 -480 Descending Jacksonville Center
08:39PM 31.1347 -84.3900 178° South 457 526 32,000  Level Jacksonville Center
08:40PM 31.0072 -84.3856 178° South 457 526 32,000  Level Jacksonville Center
08:41PM 30.8822 -84.3814 178° South 457 526 32,000  Level Jacksonville Center
08:42PM 30.7547 -84.3792 179° South 457 526 32,000  Level Jacksonville Center
08:43PM 30.6294 -84.3772 179° South 457 526 32,000  Level Jacksonville Center
08:44PM 30.5067 -84.3464 168° South 457 526 32,000  Level Jacksonville Center
08:45PM 30.3947 -84.2725 150° Southeast 459 528 32,000  Level Jacksonville Center
08:46PM 30.2869 -84.1939 148° Southeast 459 528 32,000  Level Jacksonville Center
08:47PM 30.1750 -84.1228 151° Southeast 453 521 32,000  Level Jacksonville Center
08:48PM 30.0628 -84.0517 151° Southeast 458 527 32,000  Level Jacksonville Center
08:49PM 29.9486 -83.9808 152° Southeast 458 527 32,000  Level Jacksonville Center
08:50PM 29.8367 -83.9078 150° Southeast 458 527 32,000  Level Jacksonville Center
08:51PM 29.7244 -83.8300 149° Southeast 463 533 32,000  Level Jacksonville Center
08:52PM 29.6100 -83.7597 152° Southeast 463 533 32,000 -240 Level Jacksonville Center
08:53PM 29.4978 -83.6894 151° Southeast 463 533 31,600 -1,620 Descending Jacksonville Center
08:54PM 29.3856 -83.6172 151° Southeast 458 527 28,800 -2,100 Descending Jacksonville Center
08:56PM 29.1672 -83.4728 150° Southeast 458 527 25,400 -1,440 Descending Jacksonville Center
08:57PM 29.0525 -83.4056 153° Southeast 458 527 24,500 -1,140 Descending Jacksonville Center
08:58PM 28.9442 -83.3386 152° Southeast 451 519 23,200 -1,800 Descending Jacksonville Center
08:59PM 28.8422 -83.2742 151° Southeast 441 507 20,900 -2,340 Descending Jacksonville Center
09:01PM 28.6167 -83.1333 151° Southeast 389 448 15,800 -2,220 Descending Tampa TRACON
09:02PM 28.5500 -83.0833 147° Southeast 369 425 14,300 -2,280 Descending Tampa TRACON
09:03PM 28.4667 -83.0333 152° Southeast 352 405 11,800 -1,860 Descending Tampa TRACON
09:04PM 28.3833 -82.9833 152° Southeast 337 388 10,600 -1,320 Descending Tampa TRACON
09:05PM 28.3000 -82.9500 161° South 283 326 9,100 -1,380 Descending Tampa TRACON
09:06PM 28.2333 -82.9167 156° South 278 320 7,900 -1,500 Descending Tampa TRACON
09:06PM 28.1933 -82.8989 159° South 280 322 7,000 -1,860 Descending Miami Center
09:08PM 28.1217 -82.8697 160° South 277 319 5,100 -1,680 Descending Miami Center
09:09PM 28.0517 -82.8458 163° South 270 311 3,700 -1,140 Descending Miami Center
09:10PM 27.9908 -82.8247 163° South 249 287 2,800 -600 Descending Miami Center
09:11PM 27.9361 -82.8050 162° South 223 257 2,500 -300 Descending Miami Center
09:12PM 27.8794 -82.7869 164° South 215 247 2,300 -480 Descending Miami Center
09:13PM 27.8306 -82.7656 159° South 206 237 1,600 -600 Descending Miami Center
09:14PM 27.8167 -82.7167 108° East 136 157 1,100 -300 Descending Tampa TRACON
09:15PM 27.8500 -82.6833 41° Northeast 134 154 1,000 -420 Descending Tampa TRACON
09:16PM 27.8833 -82.6833 360° North 142 163 300 -720 Descending Tampa TRACON